Time;durP1;ratioP1;P1;durP2;ratioP2;P2;SDS_P1;SDS_P2;PMS_P1;PMS_P2;Temp;Humidity;BMP_temperature;BMP_pressure;BME280_temperature;BME280_humidity;BME280_pressure;Samples;Min_cycle;Max_cycle;Signal;HPM_P1;HPM_P2
2022/03/02 00:00:51;;;;;;;1999.90;999.90;;;0.90;99.90;;;;;;5034396;28;20479;-70
2022/03/02 00:03:18;;;;;;;1999.90;999.90;;;0.80;99.90;;;;;;5034732;28;20447;-71
2022/03/02 00:05:44;;;;;;;1999.90;999.90;;;0.90;99.90;;;;;;5034756;28;21015;-70
2022/03/02 00:08:11;;;;;;;1999.90;999.90;;;1.00;99.90;;;;;;5034729;28;21006;-70
2022/03/02 00:10:39;;;;;;;1999.90;999.90;;;0.80;99.90;;;;;;5034092;28;20513;-70
2022/03/02 00:13:06;;;;;;;1999.90;999.90;;;0.80;99.90;;;;;;5033586;28;20537;-70
2022/03/02 00:15:32;;;;;;;1999.90;999.90;;;0.70;99.90;;;;;;5034753;28;20443;-70
2022/03/02 00:18:01;;;;;;;1999.90;999.90;;;0.70;99.90;;;;;;5034721;28;20451;-70
2022/03/02 00:20:27;;;;;;;1999.90;999.90;;;0.70;99.90;;;;;;5033780;28;20534;-70
2022/03/02 00:22:55;;;;;;;1999.90;999.90;;;0.80;99.90;;;;;;5034086;28;21013;-70
2022/03/02 00:25:22;;;;;;;1999.90;999.90;;;0.80;99.90;;;;;;5034657;28;20826;-69
2022/03/02 00:27:50;;;;;;;1999.90;999.90;;;0.80;99.90;;;;;;5033988;28;20447;-69
2022/03/02 00:30:16;;;;;;;1999.90;999.90;;;0.80;99.90;;;;;;5034943;28;20890;-70
2022/03/02 00:32:43;;;;;;;1999.90;999.90;;;0.80;99.90;;;;;;5033959;28;20455;-70
2022/03/02 00:35:10;;;;;;;1999.90;999.90;;;0.90;99.90;;;;;;5034089;28;20447;-70
2022/03/02 00:37:37;;;;;;;1999.90;999.90;;;0.90;99.90;;;;;;5033399;28;20451;-69
2022/03/02 00:40:05;;;;;;;1999.90;999.90;;;0.90;99.90;;;;;;5033931;28;20577;-71
2022/03/02 00:42:31;;;;;;;1999.90;999.90;;;0.90;99.90;;;;;;5033347;28;20896;-70
2022/03/02 00:44:59;;;;;;;1999.90;999.90;;;1.00;99.90;;;;;;5033771;28;20447;-70
2022/03/02 00:47:27;;;;;;;1999.90;999.90;;;1.00;99.90;;;;;;5033428;28;20448;-69
2022/03/02 00:49:53;;;;;;;1999.90;999.90;;;1.10;99.90;;;;;;5033773;28;20532;-69
2022/03/02 00:52:21;;;;;;;1999.90;999.90;;;1.00;99.90;;;;;;5033132;28;20505;-70
2022/03/02 00:54:48;;;;;;;1999.90;999.90;;;1.10;99.90;;;;;;5033583;28;20574;-70
2022/03/02 00:57:14;;;;;;;1999.90;999.90;;;1.10;99.90;;;;;;5032863;28;20505;-70
2022/03/02 00:59:41;;;;;;;1999.90;999.90;;;1.10;99.90;;;;;;5032630;28;20443;-70
2022/03/02 01:02:09;;;;;;;1999.90;999.90;;;1.00;99.90;;;;;;5032916;28;20505;-71
2022/03/02 01:04:36;;;;;;;1999.90;999.90;;;0.90;99.90;;;;;;5033510;28;20443;-70
2022/03/02 01:07:03;;;;;;;1999.90;999.90;;;0.90;99.90;;;;;;5033121;28;20513;-70
2022/03/02 01:09:29;;;;;;;1999.90;999.90;;;0.90;99.90;;;;;;5033490;28;20443;-68
2022/03/02 01:11:56;;;;;;;1999.90;999.90;;;0.90;99.90;;;;;;5032202;28;20873;-70
2022/03/02 01:14:23;;;;;;;1999.90;999.90;;;0.90;99.90;;;;;;5033470;28;20505;-70
2022/03/02 01:16:50;;;;;;;1999.90;999.90;;;0.70;99.90;;;;;;5033387;28;20444;-70
2022/03/02 01:19:18;;;;;;;1999.90;999.90;;;0.70;99.90;;;;;;5033533;28;20497;-70
2022/03/02 01:21:45;;;;;;;1999.90;999.90;;;0.60;99.90;;;;;;5032721;28;20490;-70
2022/03/02 01:24:12;;;;;;;1999.90;999.90;;;0.50;99.90;;;;;;5033478;28;20451;-70
2022/03/02 01:26:39;;;;;;;1999.90;999.90;;;0.50;99.90;;;;;;5033221;28;20451;-70
2022/03/02 01:29:06;;;;;;;1999.90;999.90;;;0.50;99.90;;;;;;5033047;28;20666;-69
2022/03/02 01:31:33;;;;;;;1999.90;999.90;;;0.40;99.90;;;;;;5032182;28;20601;-70
2022/03/02 01:33:59;;;;;;;1999.90;999.90;;;0.80;99.90;;;;;;5032576;28;20866;-70
2022/03/02 01:36:27;;;;;;;1999.90;999.90;;;0.50;99.90;;;;;;5032680;28;20455;-71
2022/03/02 01:38:54;;;;;;;1999.90;999.90;;;0.60;99.90;;;;;;5032881;28;20447;-70
2022/03/02 01:41:23;;;;;;;1999.90;999.90;;;0.50;99.90;;;;;;5032125;28;20486;-70
2022/03/02 01:43:51;;;;;;;1999.90;999.90;;;0.60;99.90;;;;;;5032437;28;20448;-69
2022/03/02 01:46:19;;;;;;;1999.90;999.90;;;0.40;99.90;;;;;;5032515;28;20836;-70
2022/03/02 01:48:47;;;;;;;1999.90;999.90;;;0.50;99.90;;;;;;5032505;28;20483;-70
2022/03/02 01:51:15;;;;;;;1999.90;999.90;;;0.50;99.90;;;;;;5032351;28;21014;-69
2022/03/02 01:53:44;;;;;;;1999.90;999.90;;;0.60;99.90;;;;;;5032681;28;20446;-71
2022/03/02 01:56:11;;;;;;;1999.90;999.90;;;0.60;99.90;;;;;;5032056;28;20870;-70
2022/03/02 01:58:38;;;;;;;1999.90;999.90;;;1.00;99.90;;;;;;5032040;28;20505;-70
2022/03/02 02:01:06;;;;;;;1999.90;999.90;;;0.40;99.90;;;;;;5032334;28;20466;-70
2022/03/02 02:03:33;;;;;;;1999.90;999.90;;;0.40;99.90;;;;;;5032171;28;20906;-70
2022/03/02 02:06:00;;;;;;;1999.90;999.90;;;0.80;99.90;;;;;;5032974;28;20477;-70
2022/03/02 02:08:27;;;;;;;1999.90;999.90;;;0.40;99.90;;;;;;5031842;28;20570;-70
2022/03/02 02:10:57;;;;;;;1999.90;999.90;;;0.30;99.90;;;;;;5031273;28;20475;-70
2022/03/02 02:13:24;;;;;;;1999.90;999.90;;;0.20;99.90;;;;;;5032688;28;20505;-70
2022/03/02 02:15:50;;;;;;;1999.90;999.90;;;0.20;99.90;;;;;;5032714;28;20451;-69
2022/03/02 02:18:17;;;;;;;1999.90;999.90;;;0.30;99.90;;;;;;5032394;28;21016;-71
2022/03/02 02:20:45;;;;;;;1999.90;999.90;;;0.10;99.90;;;;;;5032324;28;20520;-70
2022/03/02 02:23:12;;;;;;;1999.90;999.90;;;0.00;99.90;;;;;;5031673;28;20487;-70
2022/03/02 02:25:39;;;;;;;1999.90;999.90;;;0.10;99.90;;;;;;5032583;28;20456;-70
2022/03/02 02:28:08;;;;;;;1999.90;999.90;;;0.00;99.90;;;;;;5032429;28;20451;-70
2022/03/02 02:30:35;;;;;;;1999.90;999.90;;;0.00;99.90;;;;;;5032115;28;20475;-70
2022/03/02 02:33:02;;;;;;;1999.90;999.90;;;0.00;99.90;;;;;;5032293;28;20482;-71
2022/03/02 02:35:29;;;;;;;1999.90;999.90;;;0.10;99.90;;;;;;5032864;28;20491;-70
2022/03/02 02:37:59;;;;;;;1999.90;999.90;;;0.30;99.90;;;;;;5031845;28;20451;-69
2022/03/02 02:40:27;;;;;;;1999.90;999.90;;;0.20;99.90;;;;;;5032413;28;20521;-69
2022/03/02 02:42:54;;;;;;;1999.90;999.90;;;0.10;99.90;;;;;;5031631;28;20991;-70
2022/03/02 02:45:23;;;;;;;1999.90;999.90;;;0.10;99.90;;;;;;5032597;28;20509;-69
2022/03/02 02:47:54;;;;;;;1999.90;999.90;;;0.10;99.90;;;;;;5032145;28;20451;-68
2022/03/02 02:50:22;;;;;;;1999.90;999.90;;;0.10;99.90;;;;;;5031855;28;20521;-69
2022/03/02 02:52:51;;;;;;;1999.90;999.90;;;0.10;99.90;;;;;;5031849;28;20451;-70
2022/03/02 02:55:19;;;;;;;1999.90;999.90;;;0.20;99.90;;;;;;5032554;28;20858;-70
2022/03/02 02:57:45;;;;;;;1999.90;999.90;;;0.10;99.90;;;;;;5032577;28;20455;-69
2022/03/02 03:00:15;;;;;;;1999.90;999.90;;;0.10;99.90;;;;;;5031087;28;20479;-67
2022/03/02 03:02:42;;;;;;;1999.90;999.90;;;0.20;99.90;;;;;;5032141;28;20528;-70
2022/03/02 03:05:11;;;;;;;1999.90;999.90;;;0.20;99.90;;;;;;5032105;28;20501;-70
2022/03/02 03:07:38;;;;;;;1999.90;999.90;;;0.20;99.90;;;;;;5031950;28;20443;-70
2022/03/02 03:10:06;;;;;;;1999.90;999.90;;;0.80;99.90;;;;;;5032243;28;20474;-72
2022/03/02 03:12:34;;;;;;;1999.90;999.90;;;0.20;99.90;;;;;;5031795;28;20466;-69
2022/03/02 03:15:01;;;;;;;1999.90;999.90;;;0.20;99.90;;;;;;5032393;28;20451;-69
2022/03/02 03:17:27;;;;;;;1999.90;999.90;;;0.10;99.90;;;;;;5032004;28;20497;-69
2022/03/02 03:19:54;;;;;;;1999.90;999.90;;;0.20;99.90;;;;;;5031787;28;20474;-71
2022/03/02 03:22:21;;;;;;;1999.90;999.90;;;0.40;99.90;;;;;;5032540;28;20521;-69
2022/03/02 03:24:48;;;;;;;1999.90;999.90;;;0.80;99.90;;;;;;5035791;28;21198;-69
2022/03/02 03:27:14;;;;;;;1999.90;999.90;;;0.20;99.90;;;;;;5035599;28;20505;-69
2022/03/02 03:29:42;;;;;;;1999.90;999.90;;;0.20;99.90;;;;;;5035447;28;20451;-70
2022/03/02 03:32:09;;;;;;;1999.90;999.90;;;0.70;99.90;;;;;;5035124;28;20447;-70
2022/03/02 03:34:36;;;;;;;1999.90;999.90;;;0.20;99.90;;;;;;5035073;28;20520;-69
2022/03/02 03:37:03;;;;;;;1999.90;999.90;;;0.10;99.90;;;;;;5035137;28;20528;-70
2022/03/02 03:39:29;;;;;;;1999.90;999.90;;;0.10;99.90;;;;;;5034924;28;20446;-68
2022/03/02 03:41:56;;;;;;;1999.90;999.90;;;0.10;99.90;;;;;;5035135;28;20487;-70
2022/03/02 03:44:23;;;;;;;1999.90;999.90;;;0.10;99.90;;;;;;5035631;28;20443;-70
2022/03/02 03:46:51;;;;;;;1999.90;999.90;;;0.10;99.90;;;;;;5034993;28;20451;-70
2022/03/02 03:49:18;;;;;;;1999.90;999.90;;;0.10;99.90;;;;;;5035713;28;20509;-69
2022/03/02 03:51:45;;;;;;;1999.90;999.90;;;0.50;99.90;;;;;;5034672;28;20521;-69
2022/03/02 03:54:12;;;;;;;1999.90;999.90;;;0.30;99.90;;;;;;5035109;28;20959;-70
2022/03/02 03:56:38;;;;;;;1999.90;999.90;;;0.30;99.90;;;;;;5035326;28;20447;-70
2022/03/02 03:59:07;;;;;;;1999.90;999.90;;;0.40;99.90;;;;;;5034730;28;20499;-70
2022/03/02 04:01:35;;;;;;;1999.90;999.90;;;0.30;99.90;;;;;;5033201;28;20471;-70
2022/03/02 04:04:03;;;;;;;1999.90;999.90;;;0.30;99.90;;;;;;5034351;28;20447;-70
2022/03/02 04:06:30;;;;;;;1999.90;999.90;;;0.40;99.90;;;;;;5034835;28;20513;-70
2022/03/02 04:08:56;;;;;;;1999.90;999.90;;;0.40;99.90;;;;;;5034650;28;20451;-70
2022/03/02 04:11:23;;;;;;;1999.90;999.90;;;0.50;99.90;;;;;;5034773;28;20471;-70
2022/03/02 04:13:50;;;;;;;1999.90;999.90;;;0.60;99.90;;;;;;5034750;28;20908;-70
2022/03/02 04:16:17;;;;;;;1999.90;999.90;;;1.10;99.90;;;;;;5034306;28;20967;-70
2022/03/02 04:18:44;;;;;;;1999.90;999.90;;;0.60;99.90;;;;;;5034457;28;20943;-70
2022/03/02 04:21:12;;;;;;;1999.90;999.90;;;0.70;99.90;;;;;;5034517;28;20528;-70
2022/03/02 04:23:39;;;;;;;1999.90;999.90;;;0.70;99.90;;;;;;5034533;28;20536;-70
2022/03/02 04:26:05;;;;;;;1999.90;999.90;;;0.70;99.90;;;;;;5034721;28;20475;-69
2022/03/02 04:28:32;;;;;;;1999.90;999.90;;;0.60;99.90;;;;;;5034148;28;20478;-70
2022/03/02 04:30:59;;;;;;;1999.90;999.90;;;0.70;99.90;;;;;;5033644;28;20521;-70
2022/03/02 04:33:26;;;;;;;1999.90;999.90;;;0.50;99.90;;;;;;5033770;28;20447;-70
2022/03/02 04:35:52;;;;;;;1999.90;999.90;;;0.90;99.90;;;;;;5034022;28;20451;-71
2022/03/02 04:38:20;;;;;;;1999.90;999.90;;;0.60;99.90;;;;;;5034537;28;20447;-70
2022/03/02 04:40:47;;;;;;;1999.90;999.90;;;0.60;99.90;;;;;;5034084;28;20513;-69
2022/03/02 04:43:14;;;;;;;1999.90;999.90;;;0.60;99.90;;;;;;5034247;28;20901;-70
2022/03/02 04:45:41;;;;;;;1999.90;999.90;;;0.70;99.90;;;;;;5034176;28;20494;-69
2022/03/02 04:48:08;;;;;;;1999.90;999.90;;;0.60;99.90;;;;;;5034077;28;20454;-70
2022/03/02 04:50:35;;;;;;;1999.90;999.90;;;0.60;99.90;;;;;;5033877;28;20558;-69
2022/03/02 04:53:03;;;;;;;1999.90;999.90;;;0.60;99.90;;;;;;5033461;28;20963;-70
2022/03/02 04:55:31;;;;;;;1999.90;999.90;;;0.60;99.90;;;;;;5034318;28;20522;-71
2022/03/02 04:58:00;;;;;;;1999.90;999.90;;;0.50;99.90;;;;;;5032963;28;20447;-69
2022/03/02 05:00:28;;;;;;;1999.90;999.90;;;0.70;99.90;;;;;;5033303;28;20605;-70
2022/03/02 05:02:56;;;;;;;1999.90;999.90;;;0.50;99.90;;;;;;5033379;28;20529;-69
2022/03/02 05:05:24;;;;;;;1999.90;999.90;;;0.40;99.90;;;;;;5033951;28;20497;-70
2022/03/02 05:07:53;;;;;;;1999.90;999.90;;;0.40;99.90;;;;;;5033406;28;20502;-70
2022/03/02 05:10:21;;;;;;;1999.90;999.90;;;0.40;99.90;;;;;;5033216;28;20463;-69
2022/03/02 05:12:49;;;;;;;1999.90;999.90;;;0.50;99.90;;;;;;5033575;28;20483;-69
2022/03/02 05:15:17;;;;;;;1999.90;999.90;;;0.50;99.90;;;;;;5033622;28;20447;-70
2022/03/02 05:17:45;;;;;;;1999.90;999.90;;;0.50;99.90;;;;;;5033042;28;20451;-70
2022/03/02 05:20:13;;;;;;;1999.90;999.90;;;0.40;99.90;;;;;;5033048;28;20467;-67
2022/03/02 05:22:40;;;;;;;1999.90;999.90;;;0.50;99.90;;;;;;5032685;28;20483;-71
2022/03/02 05:25:09;;;;;;;1999.90;999.90;;;0.50;99.90;;;;;;5033438;28;20987;-69
2022/03/02 05:27:36;;;;;;;1999.90;999.90;;;0.40;99.90;;;;;;5033280;28;20452;-69
2022/03/02 05:30:06;;;;;;;1999.90;999.90;;;0.40;99.90;;;;;;5033453;28;20482;-69
2022/03/02 05:32:32;;;;;;;1999.90;999.90;;;0.30;99.90;;;;;;5032972;28;20584;-70
2022/03/02 05:34:59;;;;;;;1999.90;999.90;;;1.00;99.90;;;;;;5033288;28;20447;-69
2022/03/02 05:37:26;;;;;;;1999.90;999.90;;;0.30;99.90;;;;;;5033001;28;20508;-69
2022/03/02 05:39:52;;;;;;;1999.90;999.90;;;0.30;99.90;;;;;;5032630;28;20520;-69
2022/03/02 05:42:19;;;;;;;1999.90;999.90;;;0.30;99.90;;;;;;5032691;28;20491;-69
2022/03/02 05:44:46;;;;;;;1999.90;999.90;;;0.40;99.90;;;;;;5033047;28;20451;-70
2022/03/02 05:47:14;;;;;;;1999.90;999.90;;;0.40;99.90;;;;;;5032973;28;20454;-69
2022/03/02 05:49:41;;;;;;;1999.90;999.90;;;0.40;99.90;;;;;;5032836;28;20460;-69
2022/03/02 05:52:08;;;;;;;1999.90;999.90;;;0.40;99.90;;;;;;5032088;28;20474;-70
2022/03/02 05:54:34;;;;;;;1999.90;999.90;;;0.40;99.90;;;;;;5032685;28;20447;-70
2022/03/02 05:57:01;;;;;;;1999.90;999.90;;;0.40;99.90;;;;;;5032743;28;20501;-68
2022/03/02 05:59:28;;;;;;;1999.90;999.90;;;0.40;99.90;;;;;;5031547;28;20451;-70
2022/03/02 06:01:54;;;;;;;1999.90;999.90;;;0.30;99.90;;;;;;5031964;28;20525;-71
2022/03/02 06:04:22;;;;;;;1999.90;999.90;;;0.40;99.90;;;;;;5032220;28;20483;-70
2022/03/02 06:06:49;;;;;;;1999.90;999.90;;;0.30;99.90;;;;;;5032860;28;20497;-69
2022/03/02 06:09:16;;;;;;;1999.90;999.90;;;0.30;99.90;;;;;;5032082;28;20517;-69
2022/03/02 06:11:43;;;;;;;1999.90;999.90;;;0.20;99.90;;;;;;5032062;28;20466;-70
2022/03/02 06:14:11;;;;;;;1999.90;999.90;;;0.20;99.90;;;;;;5032395;28;20446;-70
2022/03/02 06:16:38;;;;;;;1999.90;999.90;;;0.30;99.90;;;;;;5032517;28;20620;-70
2022/03/02 06:19:06;;;;;;;1999.90;999.90;;;0.30;99.90;;;;;;5032222;28;20876;-69
2022/03/02 06:21:37;;;;;;;1999.90;999.90;;;0.30;99.90;;;;;;5032182;28;20516;-69
2022/03/02 06:24:05;;;;;;;1999.90;999.90;;;0.30;99.90;;;;;;5031943;28;20475;-69
2022/03/02 06:26:33;;;;;;;1999.90;999.90;;;0.30;99.90;;;;;;5032411;28;20447;-70
2022/03/02 06:28:59;;;;;;;1999.90;999.90;;;0.40;99.90;;;;;;5031492;28;20452;-69
2022/03/02 06:31:26;;;;;;;1999.90;999.90;;;0.40;99.90;;;;;;5031785;28;20914;-69
2022/03/02 06:33:53;;;;;;;1999.90;999.90;;;0.50;99.90;;;;;;5032787;28;20439;-69
2022/03/02 06:36:20;;;;;;;1999.90;999.90;;;0.60;99.90;;;;;;5032289;28;20451;-70
2022/03/02 06:38:48;;;;;;;1999.90;999.90;;;0.60;99.90;;;;;;5030654;28;20455;-70
2022/03/02 06:41:24;;;;;;;1999.90;999.90;;;0.70;99.90;;;;;;5030355;28;20882;-70
2022/03/02 06:43:57;;;;;;;1999.90;999.90;;;0.70;99.90;;;;;;5030007;28;20846;-69
2022/03/02 06:46:31;;;;;;;1999.90;999.90;;;0.70;99.90;;;;;;5030209;28;20542;-69
2022/03/02 06:49:03;;;;;;;1999.90;999.90;;;0.70;99.90;;;;;;5029912;28;20886;-72
2022/03/02 06:51:32;;;;;;;1999.90;999.90;;;0.80;99.90;;;;;;5023153;28;20503;-69
2022/03/02 06:54:04;;;;;;;1999.90;999.90;;;0.90;99.90;;;;;;5028111;28;20556;-67
2022/03/02 06:56:39;;;;;;;1999.90;999.90;;;1.00;99.90;;;;;;5017789;28;20544;-69
2022/03/02 06:59:11;;;;;;;1999.90;999.90;;;1.10;99.90;;;;;;5016550;28;20833;-67
2022/03/02 07:01:43;;;;;;;1999.90;999.90;;;1.20;99.90;;;;;;5034867;28;20549;-69
2022/03/02 07:04:12;;;;;;;1999.90;999.90;;;1.30;99.90;;;;;;5035200;28;20475;-69
2022/03/02 07:06:40;;;;;;;1999.90;999.90;;;1.40;99.90;;;;;;5035129;28;20451;-70
2022/03/02 07:09:08;;;;;;;1999.90;999.90;;;1.40;99.90;;;;;;5034813;28;20963;-70
2022/03/02 07:11:35;;;;;;;1999.90;999.90;;;1.40;99.90;;;;;;5034999;28;20525;-69
2022/03/02 07:14:02;;;;;;;1999.90;999.90;;;1.40;99.90;;;;;;5034597;28;20935;-69
2022/03/02 07:16:29;;;;;;;1999.90;999.90;;;1.50;99.90;;;;;;5034988;28;20525;-70
2022/03/02 07:18:56;;;;;;;1999.90;999.90;;;1.60;99.90;;;;;;5035193;28;20443;-70
2022/03/02 07:21:27;;;;;;;1999.90;999.90;;;1.60;99.90;;;;;;5034764;28;20905;-70
2022/03/02 07:23:55;;;;;;;1999.90;999.90;;;1.70;99.90;;;;;;5035635;28;20471;-70
2022/03/02 07:26:24;;;;;;;1999.90;999.90;;;1.80;99.90;;;;;;5035163;28;20534;-69
2022/03/02 07:28:51;;;;;;;1999.90;999.90;;;1.80;99.90;;;;;;5035010;28;20455;-69
2022/03/02 07:31:21;;;;;;;1999.90;999.90;;;1.90;99.90;;;;;;5034720;28;20479;-69
2022/03/02 07:33:48;;;;;;;1999.90;999.90;;;2.00;99.90;;;;;;5035126;28;20485;-70
2022/03/02 07:36:20;;;;;;;1999.90;999.90;;;2.10;99.90;;;;;;5035176;28;20455;-68
2022/03/02 07:38:48;;;;;;;1999.90;999.90;;;2.10;99.90;;;;;;5035194;28;20439;-70
2022/03/02 07:41:15;;;;;;;1999.90;999.90;;;2.10;99.90;;;;;;5034475;28;20467;-70
2022/03/02 07:43:44;;;;;;;1999.90;999.90;;;2.10;99.90;;;;;;5026312;28;21064;-69
2022/03/02 07:46:12;;;;;;;1999.90;999.90;;;2.10;99.90;;;;;;5015039;28;20450;-69
2022/03/02 07:48:39;;;;;;;1999.90;999.90;;;2.20;99.90;;;;;;5015226;28;20478;-70
2022/03/02 07:51:08;;;;;;;1999.90;999.90;;;2.30;99.90;;;;;;5014599;28;20963;-68
2022/03/02 07:53:41;;;;;;;1999.90;999.90;;;2.50;99.90;;;;;;5014975;28;20894;-71
2022/03/02 07:56:09;;;;;;;1999.90;999.90;;;2.70;99.90;;;;;;5014796;28;20448;-70
2022/03/02 07:58:38;;;;;;;1999.90;999.90;;;2.80;99.90;;;;;;5023968;28;20465;-69
2022/03/02 08:01:08;;;;;;;1999.90;999.90;;;2.80;99.90;;;;;;5034448;28;20922;-70
2022/03/02 08:03:38;;;;;;;1999.90;999.90;;;3.00;99.90;;;;;;5034405;28;20486;-69
2022/03/02 08:06:06;;;;;;;1999.90;999.90;;;3.10;99.90;;;;;;5024183;28;20501;-70
2022/03/02 08:08:34;;;;;;;1999.90;999.90;;;3.20;99.90;;;;;;5032690;28;20451;-70
2022/03/02 08:11:01;;;;;;;1999.90;999.90;;;3.40;99.90;;;;;;5033799;28;20983;-70
2022/03/02 08:13:31;;;;;;;1999.90;999.90;;;3.50;99.90;;;;;;5034041;28;20503;-70
2022/03/02 08:15:58;;;;;;;1999.90;999.90;;;3.60;99.90;;;;;;5033965;28;21002;-70
2022/03/02 08:18:27;;;;;;;1999.90;999.90;;;3.70;99.90;;;;;;5034498;28;20493;-70
2022/03/02 08:20:56;;;;;;;1999.90;999.90;;;4.00;99.90;;;;;;5034383;28;20475;-70
2022/03/02 08:23:28;;;;;;;1999.90;999.90;;;4.10;99.90;;;;;;5034876;28;20479;-70
2022/03/02 08:25:55;;;;;;;1999.90;999.90;;;4.20;99.90;;;;;;5035030;28;20443;-70
2022/03/02 08:28:24;;;;;;;1999.90;999.90;;;4.50;99.90;;;;;;5035073;28;20451;-70
2022/03/02 08:30:53;;;;;;;1999.90;999.90;;;4.60;99.90;;;;;;5035339;28;20471;-70
2022/03/02 08:33:25;;;;;;;1999.90;999.90;;;4.70;99.90;;;;;;5035330;28;20939;-71
2022/03/02 08:35:54;;;;;;;1999.90;999.90;;;4.80;99.90;;;;;;5036136;28;20451;-71
2022/03/02 08:38:21;;;;;;;1999.90;999.90;;;4.90;99.90;;;;;;5036164;28;20530;-71
2022/03/02 08:40:48;;;;;;;1999.90;999.90;;;5.00;99.90;;;;;;5035975;28;20524;-69
2022/03/02 08:43:15;;;;;;;1999.90;999.90;;;5.10;99.90;;;;;;5034741;28;20456;-71
2022/03/02 08:45:45;;;;;;;1999.90;999.90;;;5.10;99.90;;;;;;5035462;28;20483;-71
2022/03/02 08:48:14;;;;;;;1999.90;999.90;;;5.00;99.90;;;;;;5034514;28;20879;-70
2022/03/02 08:50:43;;;;;;;1999.90;999.90;;;5.00;99.90;;;;;;5034995;28;20459;-70
2022/03/02 08:53:14;;;;;;;1999.90;999.90;;;5.00;99.90;;;;;;5034745;28;20447;-70
2022/03/02 08:55:41;;;;;;;1999.90;999.90;;;5.10;99.90;;;;;;5033050;28;20455;-71
2022/03/02 08:58:09;;;;;;;1999.90;999.90;;;5.10;99.90;;;;;;5032212;28;20505;-70
2022/03/02 09:00:36;;;;;;;1999.90;999.90;;;5.40;99.90;;;;;;5033777;28;20467;-71
2022/03/02 09:03:04;;;;;;;1999.90;999.90;;;5.50;99.90;;;;;;5035416;28;20471;-70
2022/03/02 09:05:31;;;;;;;1999.90;999.90;;;5.70;99.90;;;;;;5034382;28;20950;-70
2022/03/02 09:07:58;;;;;;;1999.90;999.90;;;6.00;99.90;;;;;;5035082;28;20505;-70
2022/03/02 09:10:28;;;;;;;1999.90;999.90;;;6.20;99.90;;;;;;5034051;28;20984;-70
2022/03/02 09:12:55;;;;;;;1999.90;999.90;;;6.20;99.90;;;;;;5035052;28;20452;-70
2022/03/02 09:15:22;;;;;;;1999.90;999.90;;;6.30;99.90;;;;;;5032896;28;20466;-70
2022/03/02 09:17:49;;;;;;;1999.90;999.90;;;6.20;99.90;;;;;;5035074;28;20451;-70
2022/03/02 09:20:15;;;;;;;1999.90;999.90;;;6.10;99.90;;;;;;5026013;28;20514;-70
2022/03/02 09:22:43;;;;;;;1999.90;999.90;;;5.90;99.90;;;;;;5027800;28;20927;-68
2022/03/02 09:25:10;;;;;;;1999.90;999.90;;;5.90;99.90;;;;;;5033846;28;20574;-68
2022/03/02 09:27:39;;;;;;;1999.90;999.90;;;5.90;99.90;;;;;;5029621;28;20970;-70
2022/03/02 09:30:09;;;;;;;1999.90;999.90;;;6.00;99.90;;;;;;5031681;28;20505;-68
2022/03/02 09:32:40;;;;;;;1999.90;999.90;;;5.90;99.90;;;;;;5034575;28;20970;-70
2022/03/02 09:35:11;;;;;;;1999.90;999.90;;;6.00;99.90;;;;;;5035544;28;20506;-70
2022/03/02 09:37:42;;;;;;;1999.90;999.90;;;6.00;99.90;;;;;;5033630;28;20463;-71
2022/03/02 09:40:20;;;;;;;1999.90;999.90;;;6.00;99.90;;;;;;5034216;28;20486;-70
2022/03/02 09:42:55;;;;;;;1999.90;999.90;;;5.90;99.90;;;;;;5033888;28;20498;-68
2022/03/02 09:45:25;;;;;;;1999.90;999.90;;;5.80;99.90;;;;;;5033280;28;20467;-70
2022/03/02 09:47:56;;;;;;;1999.90;999.90;;;5.90;99.90;;;;;;5033723;28;20525;-70
2022/03/02 09:50:24;;;;;;;1999.90;999.90;;;6.10;99.90;;;;;;5027980;28;20974;-71
2022/03/02 09:52:53;;;;;;;1999.90;999.90;;;6.30;99.90;;;;;;5034546;28;20459;-70
2022/03/02 09:55:22;;;;;;;1999.90;999.90;;;6.40;99.90;;;;;;5034912;28;20455;-71
2022/03/02 09:57:52;;;;;;;1999.90;999.90;;;6.50;99.90;;;;;;5033319;28;20451;-71
2022/03/02 10:00:22;;;;;;;1999.90;999.90;;;6.70;99.90;;;;;;5032776;28;20475;-70
2022/03/02 10:02:50;;;;;;;1999.90;999.90;;;6.80;99.90;;;;;;5024075;28;20510;-68
2022/03/02 10:05:20;;;;;;;1999.90;999.90;;;7.00;99.90;;;;;;5032379;28;20482;-70
2022/03/02 10:07:55;;;;;;;1999.90;999.90;;;7.20;99.90;;;;;;5033115;28;20443;-70
2022/03/02 10:10:23;;;;;;;1999.90;999.90;;;7.10;99.90;;;;;;5032908;28;20474;-71
2022/03/02 10:12:51;;;;;;;1999.90;999.90;;;7.20;99.90;;;;;;5032806;28;20455;-71
2022/03/02 10:15:18;;;;;;;1999.90;999.90;;;7.30;99.90;;;;;;5033635;28;20471;-71
2022/03/02 10:17:48;;;;;;;1999.90;999.90;;;7.10;99.90;;;;;;5033840;28;20451;-71
2022/03/02 10:20:17;;;;;;;1999.90;999.90;;;6.80;99.90;;;;;;5032974;28;20467;-70
2022/03/02 10:23:18;;;;;;;1999.90;999.90;;;6.70;99.90;;;;;;5034480;28;20446;-71
2022/03/02 10:26:06;;;;;;;1999.90;999.90;;;7.00;99.90;;;;;;5020590;28;20474;-70
2022/03/02 10:28:46;;;;;;;1999.90;999.90;;;7.20;99.90;;;;;;5012911;28;20456;-70
2022/03/02 10:31:49;;;;;;;1999.90;999.90;;;7.30;99.90;;;;;;5019299;28;20536;-70
2022/03/02 10:34:32;;;;;;;1999.90;999.90;;;7.50;99.90;;;;;;5015644;28;20444;-70
2022/03/02 10:37:28;;;;;;;1999.90;999.90;;;7.60;99.90;;;;;;5012867;28;20444;-70
2022/03/02 10:40:05;;;;;;;1999.90;999.90;;;7.50;99.00;;;;;;5012612;28;20948;-70
2022/03/02 10:42:35;;;;;;;1999.90;999.90;;;7.60;98.20;;;;;;5012835;28;20479;-70
2022/03/02 10:45:10;;;;;;;1999.90;999.90;;;7.70;97.60;;;;;;5012951;28;20487;-70
2022/03/02 10:47:42;;;;;;;1999.90;999.90;;;7.70;98.00;;;;;;5013858;28;21015;-70
2022/03/02 10:50:10;;;;;;;1999.90;999.90;;;7.70;97.80;;;;;;5023521;28;20549;-71
2022/03/02 10:52:39;;;;;;;1999.90;999.90;;;7.70;97.60;;;;;;5032612;28;20450;-70
2022/03/02 10:55:08;;;;;;;1999.90;999.90;;;7.90;97.70;;;;;;5031799;28;20854;-70
2022/03/02 10:57:35;;;;;;;1999.90;999.90;;;8.10;97.40;;;;;;5031717;28;20446;-70
2022/03/02 11:00:09;;;;;;;1999.90;999.90;;;8.40;97.80;;;;;;5031621;28;20467;-70
2022/03/02 11:02:40;;;;;;;1999.90;999.90;;;8.70;96.40;;;;;;5032554;28;20545;-70
2022/03/02 11:05:10;;;;;;;1999.90;999.90;;;8.70;96.10;;;;;;5015871;28;20472;-70
2022/03/02 11:07:37;;;;;;;1999.90;999.90;;;9.00;95.80;;;;;;5028134;28;20951;-70
2022/03/02 11:10:05;;;;;;;1999.90;999.90;;;8.60;95.40;;;;;;5032154;28;20887;-70
2022/03/02 11:12:33;;;;;;;1999.90;999.90;;;8.60;96.50;;;;;;5031083;28;20485;-70
2022/03/02 11:15:02;;;;;;;1999.90;999.90;;;8.70;96.00;;;;;;5032444;28;20439;-70
2022/03/02 11:17:31;;;;;;;1999.90;999.90;;;8.80;96.10;;;;;;5031403;28;20450;-70
2022/03/02 11:19:58;;;;;;;1999.90;999.90;;;8.80;97.00;;;;;;5031185;28;20463;-70
2022/03/02 11:22:26;;;;;;;1999.90;999.90;;;8.80;98.10;;;;;;5030147;28;20453;-69
2022/03/02 11:24:56;;;;;;;1999.90;999.90;;;8.70;98.90;;;;;;5031568;28;20533;-70
2022/03/02 11:27:36;;;;;;;1999.90;999.90;;;8.60;97.20;;;;;;5031052;28;20462;-69
2022/03/02 11:30:12;;;;;;;1999.90;999.90;;;8.40;96.90;;;;;;5031601;28;20521;-71
2022/03/02 11:32:42;;;;;;;1999.90;999.90;;;8.30;95.10;;;;;;5031422;28;20466;-71
2022/03/02 11:35:14;;;;;;;1999.90;999.90;;;8.10;98.70;;;;;;5031172;28;20451;-71
2022/03/02 11:37:42;;;;;;;1999.90;999.90;;;7.90;99.90;;;;;;5031645;28;20450;-71
2022/03/02 11:40:11;;;;;;;1999.90;999.90;;;7.70;99.90;;;;;;5031077;28;20475;-68
2022/03/02 11:42:40;;;;;;;1999.90;999.90;;;7.80;99.30;;;;;;5031955;28;20800;-70
2022/03/02 11:45:09;;;;;;;1999.90;999.90;;;8.00;99.90;;;;;;5035589;28;20486;-70
2022/03/02 11:47:39;;;;;;;1999.90;999.90;;;8.10;99.90;;;;;;5035870;28;20493;-69
2022/03/02 11:50:09;;;;;;;1999.90;999.90;;;8.20;99.90;;;;;;5034292;28;20471;-69
2022/03/02 11:52:37;;;;;;;1999.90;999.90;;;8.30;99.90;;;;;;5035437;28;20443;-70
2022/03/02 11:55:07;;;;;;;1999.90;999.90;;;8.40;99.80;;;;;;5034600;28;20521;-70
2022/03/02 11:57:39;;;;;;;1999.90;999.90;;;8.50;99.40;;;;;;5034532;28;20947;-70
2022/03/02 12:00:12;;;;;;;1999.90;999.90;;;8.80;99.90;;;;;;5034036;28;20994;-67
2022/03/02 12:02:44;;;;;;;1999.90;999.90;;;8.90;99.70;;;;;;5035302;28;20510;-70
2022/03/02 12:05:13;;;;;;;1999.90;999.90;;;8.80;99.90;;;;;;5033740;28;20519;-70
2022/03/02 12:07:42;;;;;;;1999.90;999.90;;;9.00;99.90;;;;;;5034704;28;20443;-70
2022/03/02 12:10:21;;;;;;;1999.90;999.90;;;9.00;99.70;;;;;;5034374;28;20839;-67
2022/03/02 12:12:49;;;;;;;1999.90;999.90;;;9.10;99.20;;;;;;5035074;28;20451;-71
2022/03/02 12:15:16;;;;;;;1999.90;999.90;;;9.10;97.80;;;;;;5034714;28;20455;-70